createdAt,value
2022-11-28T00:01:28.632Z,12.89
2022-11-28T00:03:56.547Z,12.99
2022-11-28T00:06:27.001Z,12.89
2022-11-28T00:08:55.441Z,12.75
2022-11-28T00:11:23.406Z,12.73
2022-11-28T00:13:51.209Z,12.64
2022-11-28T00:16:22.244Z,12.61
2022-11-28T00:18:51.180Z,12.54
2022-11-28T00:21:19.828Z,12.65
2022-11-28T00:23:49.563Z,12.59
2022-11-28T00:26:21.467Z,12.81
2022-11-28T00:28:49.492Z,12.61
2022-11-28T00:31:19.364Z,12.57
2022-11-28T00:33:47.351Z,12.61
2022-11-28T00:36:15.187Z,12.52
2022-11-28T00:38:43.494Z,12.50
2022-11-28T00:41:14.481Z,12.54
2022-11-28T00:43:42.504Z,12.50
2022-11-28T00:46:10.957Z,12.53
2022-11-28T00:48:38.975Z,12.64
2022-11-28T00:51:08.433Z,12.64
2022-11-28T00:53:36.258Z,12.84
2022-11-28T00:56:05.679Z,12.70
2022-11-28T00:58:35.385Z,12.72
2022-11-28T01:01:08.866Z,12.48
2022-11-28T01:03:36.716Z,12.71
2022-11-28T01:06:04.864Z,12.70
2022-11-28T01:08:32.830Z,12.54
2022-11-28T01:11:01.311Z,12.63
2022-11-28T01:13:29.318Z,12.51
2022-11-28T01:15:59.530Z,12.58
2022-11-28T01:18:27.408Z,12.58
2022-11-28T01:20:55.214Z,12.51
2022-11-28T01:23:23.055Z,12.24
2022-11-28T01:25:50.898Z,12.51
2022-11-28T01:28:18.928Z,12.54
2022-11-28T01:30:46.727Z,12.58
2022-11-28T01:33:16.135Z,12.50
2022-11-28T01:35:43.963Z,12.44
2022-11-28T01:38:11.758Z,12.46
2022-11-28T01:40:46.484Z,12.46
2022-11-28T01:43:14.364Z,12.61
2022-11-28T01:45:42.498Z,12.56
2022-11-28T01:48:13.104Z,12.79
2022-11-28T01:50:43.834Z,12.45
2022-11-28T01:53:12.148Z,12.46
2022-11-28T01:55:54.159Z,12.58
2022-11-28T01:58:22.081Z,12.17
2022-11-28T02:00:51.687Z,12.23
2022-11-28T02:03:22.545Z,12.38
2022-11-28T02:05:52.277Z,12.39
2022-11-28T02:08:20.150Z,12.40
2022-11-28T02:11:11.016Z,12.37
2022-11-28T02:13:43.754Z,12.30
2022-11-28T02:16:22.638Z,12.26
2022-11-28T02:19:00.651Z,12.33
2022-11-28T02:21:44.023Z,12.14
2022-11-28T02:24:59.377Z,12.50
2022-11-28T02:27:59.968Z,12.34
2022-11-28T02:30:30.655Z,12.30
2022-11-28T02:33:08.281Z,12.19
2022-11-28T02:35:40.466Z,12.22
2022-11-28T02:38:14.632Z,12.23
2022-11-28T02:40:48.143Z,12.26
2022-11-28T02:43:23.344Z,12.15
2022-11-28T02:45:56.617Z,12.08
2022-11-28T02:48:30.034Z,12.05
2022-11-28T02:51:02.367Z,12.27
2022-11-28T02:53:32.265Z,11.94
2022-11-28T02:56:00.688Z,11.95
2022-11-28T02:58:28.543Z,12.19
2022-11-28T03:00:56.774Z,12.16
2022-11-28T03:03:44.458Z,12.02
2022-11-28T03:06:19.992Z,12.14
2022-11-28T03:09:01.080Z,12.25
2022-11-28T03:11:42.074Z,12.17
2022-11-28T03:14:15.395Z,12.27
2022-11-28T03:16:47.912Z,11.88
2022-11-28T03:19:21.267Z,12.02
2022-11-28T03:21:55.751Z,12.02
2022-11-28T03:24:26.814Z,12.02
2022-11-28T03:26:56.708Z,12.01
2022-11-28T03:29:27.701Z,12.03
2022-11-28T03:31:58.365Z,12.04
2022-11-28T03:34:31.697Z,11.71
2022-11-28T03:37:03.163Z,11.98
2022-11-28T03:39:35.238Z,11.91
2022-11-28T03:42:07.060Z,11.85
2022-11-28T03:44:40.520Z,12.03
2022-11-28T03:47:09.006Z,11.65
2022-11-28T03:49:40.739Z,11.52
2022-11-28T03:52:12.542Z,11.66
2022-11-28T03:54:44.375Z,11.33
2022-11-28T03:57:14.303Z,11.23
2022-11-28T03:59:44.754Z,11.48
2022-11-28T04:02:17.631Z,11.48
2022-11-28T04:04:53.503Z,11.47
2022-11-28T04:07:26.698Z,11.53
2022-11-28T04:10:00.406Z,11.61
2022-11-28T04:12:35.222Z,11.84
2022-11-28T04:15:07.654Z,11.86
2022-11-28T04:17:38.699Z,11.86
2022-11-28T04:20:15.177Z,11.89
2022-11-28T04:22:46.406Z,11.83
2022-11-28T04:25:16.630Z,11.67
2022-11-28T04:27:49.279Z,11.83
2022-11-28T04:30:17.388Z,11.77
2022-11-28T04:32:48.491Z,11.94
2022-11-28T04:35:23.053Z,12.05
2022-11-28T04:37:53.254Z,11.79
2022-11-28T04:40:21.876Z,12.04
2022-11-28T04:42:53.209Z,12.13
2022-11-28T04:45:26.006Z,12.25
2022-11-28T04:47:54.215Z,11.98
2022-11-28T04:50:25.149Z,12.27
2022-11-28T04:52:56.257Z,11.78
2022-11-28T04:55:30.293Z,12.31
2022-11-28T04:58:04.475Z,12.45
2022-11-28T05:00:34.771Z,12.51
2022-11-28T05:03:02.817Z,12.38
2022-11-28T05:05:32.257Z,12.56
2022-11-28T05:08:00.351Z,12.42
2022-11-28T05:10:28.519Z,12.51
2022-11-28T05:12:56.293Z,12.47
2022-11-28T05:15:24.102Z,12.56
2022-11-28T05:17:52.011Z,12.48
2022-11-28T05:20:19.915Z,12.54
2022-11-28T05:22:49.358Z,12.86
2022-11-28T05:25:17.397Z,12.78
2022-11-28T05:27:45.493Z,12.52
2022-11-28T05:30:14.938Z,12.48
2022-11-28T05:32:42.844Z,12.58
2022-11-28T05:35:10.693Z,12.75
2022-11-28T05:37:38.781Z,13.05
2022-11-28T05:40:09.331Z,12.79
2022-11-28T05:42:37.661Z,12.96
2022-11-28T05:45:06.081Z,13.01
2022-11-28T05:47:34.464Z,12.96
2022-11-28T05:50:02.461Z,12.99
2022-11-28T05:52:32.180Z,12.87
2022-11-28T05:55:01.535Z,12.90
2022-11-28T05:57:32.626Z,12.74
2022-11-28T06:00:00.443Z,12.82
2022-11-28T06:02:28.240Z,13.04
2022-11-28T06:04:56.186Z,12.75
2022-11-28T06:07:24.096Z,12.76
2022-11-28T06:09:51.992Z,12.56
2022-11-28T06:12:19.840Z,12.92
2022-11-28T06:14:49.047Z,12.91
2022-11-28T06:17:16.862Z,12.86
2022-11-28T06:19:45.164Z,12.95
2022-11-28T06:22:13.120Z,12.57
2022-11-28T06:24:40.901Z,12.75
2022-11-28T06:27:08.760Z,13.01
2022-11-28T06:29:36.896Z,12.81
2022-11-28T06:32:06.161Z,12.50
2022-11-28T06:34:34.439Z,12.79
2022-11-28T06:37:02.357Z,12.56
2022-11-28T06:39:30.224Z,12.58
2022-11-28T06:41:58.081Z,12.79
2022-11-28T06:44:26.141Z,12.30
2022-11-28T06:46:54.677Z,12.58
2022-11-28T06:49:23.872Z,12.66
2022-11-28T06:51:51.685Z,12.71
2022-11-28T06:54:19.516Z,12.69
2022-11-28T06:56:47.310Z,12.71
2022-11-28T06:59:15.134Z,12.76
2022-11-28T07:01:43.066Z,12.97
2022-11-28T07:04:11.209Z,13.46
2022-11-28T07:06:40.434Z,13.02
2022-11-28T07:09:08.324Z,12.99
2022-11-28T07:11:36.106Z,12.80
2022-11-28T07:14:04.321Z,12.39
2022-11-28T07:16:33.720Z,13.20
2022-11-28T07:19:01.842Z,13.02
2022-11-28T07:21:30.183Z,13.24
2022-11-28T07:24:00.690Z,13.13
2022-11-28T07:26:28.735Z,13.15
2022-11-28T07:28:58.224Z,13.06
2022-11-28T07:31:31.811Z,12.98
2022-11-28T07:34:02.108Z,13.28
2022-11-28T07:36:30.359Z,13.23
2022-11-28T07:39:00.852Z,12.90
2022-11-28T07:41:29.339Z,12.87
2022-11-28T07:43:59.002Z,12.72
2022-11-28T07:46:28.436Z,12.66
2022-11-28T07:48:56.593Z,13.11
2022-11-28T07:51:27.201Z,13.11
2022-11-28T07:53:55.187Z,12.90
2022-11-28T07:56:35.159Z,12.87
2022-11-28T07:59:12.821Z,12.93
2022-11-28T08:01:40.757Z,13.07
2022-11-28T08:04:10.012Z,13.07
2022-11-28T08:06:39.778Z,13.46
2022-11-28T08:09:08.139Z,13.63
2022-11-28T08:11:37.722Z,13.35
2022-11-28T08:14:06.542Z,13.41
2022-11-28T08:16:34.691Z,13.45
2022-11-28T08:19:03.148Z,13.22
2022-11-28T08:21:32.233Z,13.63
2022-11-28T08:24:02.163Z,13.58
2022-11-28T08:26:31.395Z,14.11
2022-11-28T08:29:01.345Z,13.96
2022-11-28T08:31:31.355Z,14.46
2022-11-28T08:34:00.945Z,13.92
2022-11-28T08:36:29.461Z,14.18
2022-11-28T08:39:09.848Z,14.19
2022-11-28T08:41:46.139Z,14.17
2022-11-28T08:44:16.141Z,14.25
2022-11-28T08:46:44.078Z,14.57
2022-11-28T08:49:11.840Z,14.71
2022-11-28T08:51:39.652Z,14.44
2022-11-28T08:54:07.593Z,14.32
2022-11-28T08:56:35.573Z,14.53
2022-11-28T08:59:03.533Z,14.24
2022-11-28T09:01:32.988Z,14.50
2022-11-28T09:04:00.900Z,14.70
2022-11-28T09:06:28.797Z,14.84
2022-11-28T09:08:56.652Z,14.93
2022-11-28T09:11:25.077Z,15.24
2022-11-28T09:13:52.949Z,15.01
2022-11-28T09:16:21.029Z,14.96
2022-11-28T09:18:51.086Z,14.98
2022-11-28T09:21:18.980Z,14.74
2022-11-28T09:23:46.831Z,14.89
2022-11-28T09:26:16.666Z,14.21
2022-11-28T09:28:45.110Z,14.19
2022-11-28T09:31:13.857Z,14.90
2022-11-28T09:33:41.871Z,14.63
2022-11-28T09:36:14.254Z,14.69
2022-11-28T09:38:42.429Z,14.36
2022-11-28T09:41:30.663Z,14.72
2022-11-28T09:44:02.128Z,14.49
2022-11-28T09:46:32.669Z,14.85
2022-11-28T09:49:03.026Z,15.09
2022-11-28T09:51:35.887Z,14.92
2022-11-28T09:54:09.266Z,15.36
2022-11-28T09:56:37.254Z,15.53
2022-11-28T09:59:05.638Z,15.54
2022-11-28T10:01:39.357Z,15.48
2022-11-28T10:04:18.527Z,15.33
2022-11-28T10:06:53.289Z,15.21
2022-11-28T10:09:30.199Z,15.07
2022-11-28T10:12:08.012Z,15.42
2022-11-28T10:14:52.126Z,15.47
2022-11-28T10:17:28.557Z,15.42
2022-11-28T10:19:58.604Z,15.33
2022-11-28T10:22:33.407Z,15.57
2022-11-28T10:25:06.591Z,15.25
2022-11-28T10:27:36.613Z,14.29
2022-11-28T10:30:07.913Z,14.86
2022-11-28T10:32:39.780Z,15.10
2022-11-28T10:35:11.544Z,15.24
2022-11-28T10:37:41.182Z,14.60
2022-11-28T10:40:19.388Z,15.06
2022-11-28T10:42:52.164Z,15.27
2022-11-28T10:45:27.591Z,15.51
2022-11-28T10:48:37.974Z,16.36
2022-11-28T10:51:04.043Z,16.37
2022-11-28T10:53:42.321Z,16.35
2022-11-28T10:56:17.219Z,16.25
2022-11-28T10:58:51.608Z,16.03
2022-11-28T11:01:19.698Z,15.94
2022-11-28T11:03:47.715Z,15.90
2022-11-28T11:06:15.622Z,16.02
2022-11-28T11:08:46.662Z,16.28
2022-11-28T11:11:25.489Z,16.46
2022-11-28T11:14:01.584Z,16.52
2022-11-28T11:16:47.774Z,16.83
2022-11-28T11:19:25.487Z,16.98
2022-11-28T11:22:01.645Z,17.12
2022-11-28T11:24:31.153Z,17.03
2022-11-28T11:27:05.580Z,17.14
2022-11-28T11:29:35.865Z,16.91
2022-11-28T11:32:06.366Z,17.12
2022-11-28T11:34:39.362Z,16.88
2022-11-28T11:37:33.227Z,17.11
2022-11-28T11:40:03.955Z,17.13
2022-11-28T11:42:33.519Z,17.27
2022-11-28T11:45:25.449Z,17.09
2022-11-28T11:47:53.235Z,17.18
2022-11-28T11:50:23.166Z,16.98
2022-11-28T11:53:08.212Z,16.84
2022-11-28T11:55:45.188Z,17.06
2022-11-28T11:58:15.691Z,16.79
2022-11-28T12:00:45.553Z,16.86
2022-11-28T12:03:19.854Z,17.04
2022-11-28T12:08:42.583Z,16.83
2022-11-28T12:11:16.716Z,16.75
2022-11-28T12:13:44.887Z,16.99
2022-11-28T12:16:26.530Z,17.34
2022-11-28T12:19:01.306Z,17.33
2022-11-28T12:21:36.453Z,17.89
2022-11-28T12:24:10.188Z,17.52
2022-11-28T12:26:43.420Z,16.92
2022-11-28T12:29:26.404Z,16.98
2022-11-28T12:32:05.286Z,17.19
2022-11-28T12:34:39.400Z,16.97
2022-11-28T12:37:12.313Z,16.98
2022-11-28T12:39:50.265Z,17.09
2022-11-28T12:42:30.758Z,16.58
2022-11-28T12:45:16.527Z,16.25
2022-11-28T12:47:51.495Z,16.84
2022-11-28T12:50:27.563Z,16.92
2022-11-28T12:53:06.465Z,16.97
2022-11-28T12:55:38.142Z,17.04
2022-11-28T12:58:11.504Z,16.78
2022-11-28T13:00:49.417Z,16.77
2022-11-28T13:03:33.491Z,16.91
2022-11-28T13:06:12.216Z,16.73
2022-11-28T13:08:50.018Z,16.44
2022-11-28T13:11:33.664Z,16.57
2022-11-28T13:14:06.887Z,16.54
2022-11-28T13:16:42.848Z,16.35
2022-11-28T13:19:15.969Z,16.22
2022-11-28T13:21:47.935Z,16.13
2022-11-28T13:24:23.963Z,15.96
2022-11-28T13:26:58.906Z,15.94
2022-11-28T13:29:35.094Z,16.25
2022-11-28T13:32:11.772Z,16.33
2022-11-28T13:34:40.142Z,16.21
2022-11-28T13:40:08.235Z,15.89
2022-11-28T13:45:32.689Z,16.06
2022-11-28T13:48:01.281Z,15.56
2022-11-28T13:50:40.814Z,15.70
2022-11-28T13:53:23.234Z,15.36
2022-11-28T13:55:53.227Z,15.55
2022-11-28T13:58:28.336Z,15.61
2022-11-28T14:01:08.617Z,15.59
2022-11-28T14:03:45.046Z,15.55
2022-11-28T14:06:15.718Z,14.80
2022-11-28T14:08:45.386Z,15.31
2022-11-28T14:11:31.076Z,15.28
2022-11-28T14:14:25.543Z,15.23
2022-11-28T14:17:04.999Z,15.27
2022-11-28T14:19:48.745Z,15.37
2022-11-28T14:22:33.158Z,15.37
2022-11-28T14:25:06.192Z,14.86
2022-11-28T14:27:36.021Z,14.75
2022-11-28T14:30:07.742Z,14.91
2022-11-28T14:32:39.243Z,15.05
2022-11-28T14:35:13.351Z,14.66
2022-11-28T14:37:52.977Z,14.47
2022-11-28T14:41:03.107Z,14.92
2022-11-28T14:43:32.460Z,14.79
2022-11-28T14:46:26.923Z,14.85
2022-11-28T14:49:24.473Z,14.75
2022-11-28T14:52:40.266Z,14.46
2022-11-28T14:55:20.502Z,14.67
2022-11-28T14:57:57.494Z,14.48
2022-11-28T15:00:26.917Z,14.59
2022-11-28T15:03:08.327Z,14.26
2022-11-28T15:05:45.662Z,14.14
2022-11-28T15:08:26.115Z,14.04
2022-11-28T15:11:01.099Z,14.21
2022-11-28T15:13:40.881Z,14.16
2022-11-28T15:16:13.123Z,14.00
2022-11-28T15:18:47.054Z,14.00
2022-11-28T15:21:18.065Z,14.20
2022-11-28T15:23:47.705Z,13.96
2022-11-28T15:26:27.948Z,13.93
2022-11-28T15:29:10.373Z,14.05
2022-11-28T15:31:38.996Z,14.02
2022-11-28T15:34:09.842Z,13.98
2022-11-28T15:36:42.484Z,14.02
2022-11-28T15:39:25.193Z,14.10
2022-11-28T15:41:53.803Z,13.96
2022-11-28T15:44:21.947Z,13.97
2022-11-28T15:46:49.883Z,13.84
2022-11-28T15:49:26.203Z,14.03
2022-11-28T15:51:59.615Z,14.04
2022-11-28T15:54:36.352Z,13.90
2022-11-28T15:57:05.733Z,13.77
2022-11-28T15:59:34.766Z,13.86
2022-11-28T16:02:05.757Z,13.83
2022-11-28T16:04:33.742Z,13.77
2022-11-28T16:07:03.449Z,13.68
2022-11-28T16:09:33.896Z,13.66
2022-11-28T16:12:04.011Z,13.79
2022-11-28T16:14:34.264Z,13.77
2022-11-28T16:17:03.975Z,13.65
2022-11-28T16:19:33.403Z,13.73
2022-11-28T16:22:04.194Z,13.66
2022-11-28T16:24:38.833Z,13.70
2022-11-28T16:27:07.374Z,13.69
2022-11-28T16:29:37.053Z,13.85
2022-11-28T16:32:08.915Z,13.76
2022-11-28T16:34:47.651Z,13.65
2022-11-28T16:37:20.963Z,13.45
2022-11-28T16:39:49.134Z,13.49
2022-11-28T16:42:20.123Z,13.53
2022-11-28T16:44:47.965Z,13.51
2022-11-28T16:47:27.533Z,13.49
2022-11-28T16:50:22.991Z,13.51
2022-11-28T16:52:55.647Z,13.45
2022-11-28T16:55:40.660Z,13.43
2022-11-28T16:58:17.715Z,13.33
2022-11-28T17:00:59.030Z,13.38
2022-11-28T17:03:47.721Z,13.58
2022-11-28T17:06:21.623Z,13.63
2022-11-28T17:08:51.067Z,13.35
2022-11-28T17:11:21.567Z,13.49
2022-11-28T17:13:49.512Z,13.57
2022-11-28T17:16:19.939Z,13.44
2022-11-28T17:18:48.172Z,13.58
2022-11-28T17:21:17.573Z,13.25
2022-11-28T17:23:45.772Z,13.32
2022-11-28T17:26:14.956Z,13.43
2022-11-28T17:28:42.781Z,13.49
2022-11-28T17:31:12.787Z,13.46
2022-11-28T17:33:44.666Z,13.68
2022-11-28T17:36:13.393Z,13.90
2022-11-28T17:38:41.184Z,13.71
2022-11-28T17:41:14.601Z,13.61
2022-11-28T17:43:42.713Z,13.58
2022-11-28T17:46:10.781Z,13.52
2022-11-28T17:48:38.679Z,13.52
2022-11-28T17:51:07.012Z,13.93
2022-11-28T17:53:35.151Z,13.75
2022-11-28T17:56:03.108Z,13.58
2022-11-28T17:58:32.827Z,13.68
2022-11-28T18:01:01.168Z,13.51
2022-11-28T18:03:29.413Z,13.41
2022-11-28T18:05:57.234Z,13.44
2022-11-28T18:08:25.188Z,13.25
2022-11-28T18:11:04.238Z,13.31
2022-11-28T18:13:33.698Z,13.38
2022-11-28T18:16:01.785Z,13.62
2022-11-28T18:18:30.373Z,13.46
2022-11-28T18:20:58.461Z,13.39
2022-11-28T18:23:26.318Z,13.40
2022-11-28T18:25:54.127Z,13.59
2022-11-28T18:28:22.903Z,13.51
2022-11-28T18:30:52.272Z,13.57
2022-11-28T18:33:20.330Z,13.49
2022-11-28T18:35:48.336Z,13.42
2022-11-28T18:38:16.198Z,13.33
2022-11-28T18:40:44.007Z,13.25
2022-11-28T18:43:11.904Z,13.37
2022-11-28T18:45:39.772Z,13.43
2022-11-28T18:48:09.810Z,13.40
2022-11-28T18:50:37.656Z,13.29
2022-11-28T18:53:05.448Z,13.38
2022-11-28T18:55:33.508Z,13.38
2022-11-28T18:58:01.623Z,13.41
2022-11-28T19:00:29.355Z,13.54
2022-11-28T19:02:57.239Z,13.52
2022-11-28T19:05:26.435Z,13.52
2022-11-28T19:07:54.265Z,13.52
2022-11-28T19:10:22.109Z,13.90
2022-11-28T19:12:50.206Z,14.32
2022-11-28T19:15:18.466Z,14.77
2022-11-28T19:17:46.491Z,14.98
2022-11-28T19:20:14.798Z,14.82
2022-11-28T19:22:44.293Z,14.69
2022-11-28T19:25:12.188Z,14.70
2022-11-28T19:27:40.029Z,14.54
2022-11-28T19:30:09.168Z,14.30
2022-11-28T19:32:37.328Z,14.10
2022-11-28T19:35:05.514Z,13.83
2022-11-28T19:37:33.811Z,13.93
2022-11-28T19:40:03.662Z,13.80
2022-11-28T19:42:31.797Z,13.86
2022-11-28T19:44:59.581Z,13.86
2022-11-28T19:47:28.081Z,13.81
2022-11-28T19:49:55.952Z,13.78
2022-11-28T19:52:23.793Z,13.71
2022-11-28T19:54:51.747Z,13.73
2022-11-28T19:57:20.909Z,13.66
2022-11-28T19:59:49.122Z,13.68
2022-11-28T20:02:17.645Z,13.66
2022-11-28T20:04:45.495Z,13.71
2022-11-28T20:07:13.604Z,13.70
2022-11-28T20:09:41.974Z,13.73
2022-11-28T20:12:10.063Z,13.68
2022-11-28T20:14:39.377Z,13.64
2022-11-28T20:17:07.289Z,13.62
2022-11-28T20:19:35.492Z,13.67
2022-11-28T20:22:03.461Z,13.61
2022-11-28T20:24:31.448Z,13.75
2022-11-28T20:26:59.452Z,13.65
2022-11-28T20:29:27.933Z,13.61
2022-11-28T20:31:57.981Z,13.61
2022-11-28T20:34:27.409Z,13.73
2022-11-28T20:36:55.298Z,13.66
2022-11-28T20:39:23.436Z,13.69
2022-11-28T20:41:51.264Z,13.75
2022-11-28T20:44:19.217Z,13.62
2022-11-28T20:46:49.438Z,13.61
2022-11-28T20:49:19.058Z,13.75
2022-11-28T20:51:47.344Z,13.66
2022-11-28T20:54:15.604Z,13.68
2022-11-28T20:57:19.077Z,13.57
2022-11-28T20:59:32.639Z,13.65
2022-11-28T21:02:00.544Z,13.66
2022-11-28T21:04:29.872Z,13.66
2022-11-28T21:06:57.733Z,13.55
2022-11-28T21:09:25.690Z,13.52
2022-11-28T21:11:59.008Z,13.59
2022-11-28T21:14:28.522Z,14.06
2022-11-28T21:16:56.652Z,14.02
2022-11-28T21:19:24.664Z,13.94
2022-11-28T21:21:53.930Z,13.80
2022-11-28T21:24:21.825Z,13.97
2022-11-28T21:26:53.891Z,14.01
2022-11-28T21:29:23.741Z,14.00
2022-11-28T21:31:51.594Z,13.95
2022-11-28T21:34:19.779Z,13.77
2022-11-28T21:36:47.854Z,13.77
2022-11-28T21:39:25.034Z,13.69
2022-11-28T21:41:52.914Z,13.78
2022-11-28T21:44:20.807Z,13.80
2022-11-28T21:46:50.036Z,13.72
2022-11-28T21:49:18.101Z,13.59
2022-11-28T21:51:46.463Z,13.79
2022-11-28T21:54:14.374Z,13.75
2022-11-28T21:56:46.484Z,13.84
2022-11-28T21:59:14.511Z,13.64
2022-11-28T22:01:42.469Z,14.03
2022-11-28T22:04:10.913Z,13.93
2022-11-28T22:06:39.629Z,13.92
2022-11-28T22:09:09.786Z,13.95
2022-11-28T22:11:39.984Z,13.86
2022-11-28T22:14:09.695Z,13.74
2022-11-28T22:16:38.325Z,13.43
2022-11-28T22:19:06.443Z,13.57
2022-11-28T22:21:55.289Z,13.46
2022-11-28T22:24:24.637Z,13.50
2022-11-28T22:26:54.379Z,13.40
2022-11-28T22:29:23.741Z,13.44
2022-11-28T22:31:51.646Z,13.39
2022-11-28T22:34:19.731Z,13.33
2022-11-28T22:36:47.617Z,13.36
2022-11-28T22:39:15.498Z,13.30
2022-11-28T22:41:43.408Z,13.32
2022-11-28T22:44:11.818Z,13.38
2022-11-28T22:46:41.229Z,13.31
2022-11-28T22:49:11.611Z,13.45
2022-11-28T22:51:39.835Z,13.42
2022-11-28T22:54:08.304Z,13.39
2022-11-28T22:56:36.229Z,13.45
2022-11-28T22:59:04.796Z,13.41
2022-11-28T23:01:34.661Z,13.42
2022-11-28T23:04:04.399Z,13.24
2022-11-28T23:06:34.334Z,13.22
2022-11-28T23:09:04.579Z,13.24
2022-11-28T23:11:34.054Z,13.27
2022-11-28T23:14:03.296Z,13.20
2022-11-28T23:16:32.949Z,13.14
2022-11-28T23:19:05.350Z,13.10
2022-11-28T23:21:35.146Z,12.97
2022-11-28T23:24:04.378Z,12.90
2022-11-28T23:26:33.769Z,12.90
2022-11-28T23:29:05.181Z,12.88
2022-11-28T23:31:36.208Z,12.78
2022-11-28T23:34:05.702Z,12.75
2022-11-28T23:36:41.542Z,12.74
2022-11-28T23:39:11.856Z,12.82
2022-11-28T23:41:39.938Z,12.72
2022-11-28T23:44:08.265Z,12.70
2022-11-28T23:46:36.949Z,12.70
2022-11-28T23:49:06.312Z,12.54
2022-11-28T23:51:34.530Z,12.61
2022-11-28T23:54:02.398Z,12.46
2022-11-28T23:56:31.607Z,12.47
2022-11-28T23:59:02.132Z,12.37
